Dixons Mills, Alabama
Current Conditions -  °F | °C
As of 1:15 PM on Tuesday 21 Oct 2014 (Local Time) from KDYA Reporting Station
Clear Clear  
Wind Chill: 76°   Ceiling: Unl
Heat Index: 76°   Visibility: 10mi
Dew Point: 51°   Wind: 3mph
Humidity: 42%   Direction: 30°NNE
Pressure: 30.03"   Gusts: NA
Location:  32.06°N, 87.79°W
Report Text: KDYA 211815Z AUTO 03003KT 10SM CLR 24/11 A3003 RMK AO2 T02440106
Loading
Personal Weather Stations






























Interactive Weather Map
Tropical Storm Tracking
New forecast layout! Learn more

10-Day Weather Forecast

Advertisements
Track Severe Weather on mobile